createdAt,value
2018-04-02T00:02:00.225Z,33.90
2018-04-02T00:04:26.212Z,34.00
2018-04-02T00:06:52.220Z,34.00
2018-04-02T00:09:18.204Z,33.90
2018-04-02T00:11:44.201Z,33.90
2018-04-02T00:14:10.216Z,33.90
2018-04-02T00:16:36.208Z,33.90
2018-04-02T00:19:02.220Z,33.80
2018-04-02T00:21:28.216Z,33.90
2018-04-02T00:23:54.220Z,33.90
2018-04-02T00:26:20.956Z,34.00
2018-04-02T00:28:46.957Z,34.00
2018-04-02T00:31:12.964Z,34.00
2018-04-02T00:33:38.970Z,34.00
2018-04-02T00:36:04.952Z,34.00
2018-04-02T00:38:30.956Z,34.00
2018-04-02T00:40:57.709Z,34.60
2018-04-02T00:43:23.716Z,34.00
2018-04-02T00:45:49.712Z,34.10
2018-04-02T00:48:15.729Z,34.00
2018-04-02T00:50:41.712Z,34.00
2018-04-02T00:53:07.724Z,34.00
2018-04-02T00:55:34.461Z,34.00
2018-04-02T00:58:01.067Z,34.00
2018-04-02T01:00:27.081Z,34.00
2018-04-02T01:02:53.064Z,34.00
2018-04-02T01:05:19.121Z,33.90
2018-04-02T01:07:45.083Z,34.00
2018-04-02T01:10:11.093Z,34.00
2018-04-02T01:12:37.080Z,34.00
2018-04-02T01:15:03.091Z,33.90
2018-04-02T01:17:29.077Z,33.90
2018-04-02T01:19:55.830Z,33.90
2018-04-02T01:22:21.824Z,33.90
2018-04-02T01:24:47.832Z,33.90
2018-04-02T01:27:13.816Z,33.90
2018-04-02T01:29:39.820Z,33.90
2018-04-02T01:32:05.828Z,33.90
2018-04-02T01:34:31.828Z,33.90
2018-04-02T01:36:57.819Z,33.90
2018-04-02T01:39:23.820Z,33.90
2018-04-02T01:41:49.804Z,33.90
2018-04-02T01:44:15.812Z,33.90
2018-04-02T01:46:41.811Z,33.90
2018-04-02T01:49:07.812Z,33.90
2018-04-02T01:51:33.812Z,33.90
2018-04-02T01:54:00.540Z,33.90
2018-04-02T01:56:26.544Z,33.90
2018-04-02T01:58:52.545Z,33.90
2018-04-02T02:01:18.544Z,33.90
2018-04-02T02:03:44.533Z,33.90
2018-04-02T02:06:10.540Z,33.90
2018-04-02T02:08:36.527Z,33.80
2018-04-02T02:11:02.536Z,33.90
2018-04-02T02:13:28.520Z,33.90
2018-04-02T02:15:54.520Z,34.00
2018-04-02T02:18:20.504Z,33.90
2018-04-02T02:20:46.528Z,33.90
2018-04-02T02:23:12.512Z,33.90
2018-04-02T02:25:38.511Z,33.90
2018-04-02T02:28:04.504Z,33.90
2018-04-02T02:30:30.517Z,33.90
2018-04-02T02:32:56.504Z,33.90
2018-04-02T02:35:22.511Z,34.40
2018-04-02T02:37:48.499Z,33.90
2018-04-02T02:40:14.499Z,33.80
2018-04-02T02:42:40.505Z,33.90
2018-04-02T02:45:06.508Z,33.90
2018-04-02T02:47:32.522Z,33.90
2018-04-02T02:49:59.232Z,33.90
2018-04-02T02:52:25.241Z,33.90
2018-04-02T02:54:51.233Z,33.90
2018-04-02T02:57:17.229Z,33.90
2018-04-02T02:59:43.215Z,33.90
2018-04-02T03:02:09.213Z,33.90
2018-04-02T03:04:35.942Z,33.90
2018-04-02T03:07:02.328Z,33.90
2018-04-02T03:09:28.321Z,33.90
2018-04-02T03:11:54.328Z,33.90
2018-04-02T03:14:20.325Z,33.90
2018-04-02T03:16:46.319Z,33.90
2018-04-02T03:19:12.303Z,33.90
2018-04-02T03:21:38.299Z,33.90
2018-04-02T03:24:04.279Z,33.90
2018-04-02T03:26:30.267Z,33.90
2018-04-02T03:28:57.008Z,33.90
2018-04-02T03:31:23.013Z,33.90
2018-04-02T03:33:49.020Z,33.90
2018-04-02T03:36:15.013Z,34.00
2018-04-02T03:38:41.017Z,33.80
2018-04-02T03:41:07.004Z,33.80
2018-04-02T03:43:33.752Z,34.20
2018-04-02T03:45:59.736Z,33.80
2018-04-02T03:48:25.733Z,33.90
2018-04-02T03:50:51.719Z,33.90
2018-04-02T03:53:17.735Z,33.90
2018-04-02T03:55:43.724Z,33.90
2018-04-02T03:58:09.731Z,33.90
2018-04-02T04:00:35.722Z,33.80
2018-04-02T04:03:01.719Z,33.90
2018-04-02T04:05:27.700Z,33.90
2018-04-02T04:07:53.696Z,33.90
2018-04-02T04:10:19.699Z,33.80
2018-04-02T04:12:45.700Z,33.80
2018-04-02T04:15:11.684Z,33.80
2018-04-02T04:17:37.668Z,33.90
2018-04-02T04:20:04.411Z,33.80
2018-04-02T04:22:30.400Z,33.80
2018-04-02T04:24:56.396Z,33.80
2018-04-02T04:27:22.392Z,33.70
2018-04-02T04:29:48.399Z,33.90
2018-04-02T04:32:14.404Z,33.90
2018-04-02T04:34:40.416Z,33.90
2018-04-02T04:37:06.400Z,33.90
2018-04-02T04:39:32.403Z,33.90
2018-04-02T04:41:58.385Z,33.90
2018-04-02T04:44:25.119Z,33.90
2018-04-02T04:46:51.103Z,33.80
2018-04-02T04:49:17.134Z,33.90
2018-04-02T04:51:43.114Z,33.90
2018-04-02T04:54:09.129Z,33.90
2018-04-02T04:56:35.112Z,33.80
2018-04-02T04:59:01.116Z,33.80
2018-04-02T05:01:27.102Z,33.80
2018-04-02T05:03:53.100Z,33.80
2018-04-02T05:06:19.096Z,33.80
2018-04-02T05:08:45.099Z,33.80
2018-04-02T05:11:11.104Z,33.80
2018-04-02T05:13:37.092Z,33.80
2018-04-02T05:16:03.749Z,33.80
2018-04-02T05:18:30.480Z,33.50
2018-04-02T05:20:56.492Z,33.80
2018-04-02T05:23:22.471Z,33.80
2018-04-02T05:25:48.471Z,33.80
2018-04-02T05:28:14.452Z,33.80
2018-04-02T05:30:40.464Z,33.80
2018-04-02T05:33:06.455Z,33.80
2018-04-02T05:35:32.456Z,33.80
2018-04-02T05:37:58.443Z,33.80
2018-04-02T05:40:24.440Z,33.80
2018-04-02T05:42:50.423Z,33.80
2018-04-02T05:45:17.198Z,33.80
2018-04-02T05:47:43.181Z,33.80
2018-04-02T05:50:09.913Z,34.40
2018-04-02T05:52:35.928Z,33.80
2018-04-02T05:55:01.925Z,33.80
2018-04-02T05:57:27.927Z,33.80
2018-04-02T05:59:53.920Z,33.80
2018-04-02T06:02:19.927Z,33.80
2018-04-02T06:04:45.908Z,33.80
2018-04-02T06:07:11.912Z,33.80
2018-04-02T06:09:37.904Z,33.90
2018-04-02T06:12:04.228Z,33.80
2018-04-02T06:14:30.212Z,33.90
2018-04-02T06:16:56.216Z,34.40
2018-04-02T06:19:22.204Z,33.80
2018-04-02T06:21:48.203Z,33.80
2018-04-02T06:24:14.192Z,33.80
2018-04-02T06:26:40.183Z,33.80
2018-04-02T06:29:06.168Z,33.80
2018-04-02T06:31:32.224Z,33.90
2018-04-02T06:33:58.188Z,33.80
2018-04-02T06:36:24.197Z,33.80
2018-04-02T06:38:50.200Z,33.80
2018-04-02T06:41:16.184Z,33.80
2018-04-02T06:43:42.188Z,33.80
2018-04-02T06:46:08.186Z,33.80
2018-04-02T06:48:34.196Z,33.80
2018-04-02T06:51:00.183Z,33.80
2018-04-02T06:53:26.199Z,33.80
2018-04-02T06:55:52.191Z,33.80
2018-04-02T06:58:18.203Z,33.80
2018-04-02T07:00:44.195Z,33.80
2018-04-02T07:03:10.939Z,33.80
2018-04-02T07:05:36.928Z,33.80
2018-04-02T07:08:02.932Z,33.80
2018-04-02T07:10:28.915Z,33.80
2018-04-02T07:12:54.924Z,33.80
2018-04-02T07:15:20.911Z,33.80
2018-04-02T07:17:46.921Z,33.80
2018-04-02T07:20:12.909Z,33.80
2018-04-02T07:22:38.924Z,33.80
2018-04-02T07:25:04.921Z,33.80
2018-04-02T07:27:30.909Z,33.80
2018-04-02T07:29:56.916Z,33.70
2018-04-02T07:32:22.933Z,33.80
2018-04-02T07:34:48.931Z,33.80
2018-04-02T07:37:15.668Z,33.80
2018-04-02T07:39:41.672Z,33.80
2018-04-02T07:42:07.656Z,33.80
2018-04-02T07:44:33.669Z,33.80
2018-04-02T07:46:59.665Z,33.80
2018-04-02T07:49:25.680Z,33.80
2018-04-02T07:51:52.436Z,33.80
2018-04-02T07:54:18.453Z,33.80
2018-04-02T07:56:44.483Z,33.80
2018-04-02T07:59:10.490Z,33.80
2018-04-02T08:01:36.480Z,33.80
2018-04-02T08:04:02.482Z,33.80
2018-04-02T08:06:28.468Z,33.80
2018-04-02T08:08:54.489Z,33.80
2018-04-02T08:11:20.483Z,33.80
2018-04-02T08:13:46.504Z,33.80
2018-04-02T08:16:12.495Z,33.80
2018-04-02T08:18:38.484Z,33.80
2018-04-02T08:21:04.492Z,33.80
2018-04-02T08:23:31.236Z,33.90
2018-04-02T08:25:57.243Z,33.80
2018-04-02T08:28:23.228Z,33.80
2018-04-02T08:30:49.244Z,33.70
2018-04-02T08:33:15.227Z,33.80
2018-04-02T08:35:41.232Z,33.80
2018-04-02T08:38:07.219Z,33.70
2018-04-02T08:40:33.231Z,33.80
2018-04-02T08:42:59.244Z,33.80
2018-04-02T08:45:25.252Z,33.80
2018-04-02T08:47:51.244Z,33.80
2018-04-02T08:50:17.248Z,33.80
2018-04-02T08:52:43.245Z,33.80
2018-04-02T08:55:10.828Z,33.80
2018-04-02T08:57:36.828Z,33.80
2018-04-02T09:00:02.876Z,33.80
2018-04-02T09:02:28.880Z,33.80
2018-04-02T09:04:54.872Z,33.80
2018-04-02T09:07:20.879Z,33.80
2018-04-02T09:09:46.867Z,33.80
2018-04-02T09:12:12.868Z,33.80
2018-04-02T09:14:38.855Z,33.80
2018-04-02T09:17:04.856Z,33.80
2018-04-02T09:19:31.584Z,33.80
2018-04-02T09:21:57.604Z,33.80
2018-04-02T09:24:23.603Z,33.80
2018-04-02T09:26:49.617Z,33.80
2018-04-02T09:29:15.625Z,33.80
2018-04-02T09:31:41.664Z,33.80
2018-04-02T09:34:07.668Z,33.80
2018-04-02T09:36:33.684Z,33.80
2018-04-02T09:38:59.672Z,33.80
2018-04-02T09:41:25.688Z,33.80
2018-04-02T09:43:51.656Z,33.80
2018-04-02T09:46:17.623Z,33.80
2018-04-02T09:48:43.621Z,33.80
2018-04-02T09:51:09.599Z,33.80
2018-04-02T09:53:35.584Z,33.80
2018-04-02T09:56:01.603Z,33.70
2018-04-02T09:58:27.623Z,33.80
2018-04-02T10:00:59.639Z,33.80
2018-04-02T10:03:31.779Z,33.80
2018-04-02T10:05:57.773Z,33.80
2018-04-02T10:08:23.796Z,33.80
2018-04-02T10:10:49.793Z,33.80
2018-04-02T10:13:15.928Z,33.80
2018-04-02T10:15:41.961Z,33.80
2018-04-02T10:18:12.143Z,33.80
2018-04-02T10:20:38.133Z,33.80
2018-04-02T10:23:04.137Z,33.80
2018-04-02T10:25:30.127Z,33.80
2018-04-02T10:27:56.132Z,33.80
2018-04-02T10:30:22.131Z,33.80
2018-04-02T10:32:48.132Z,33.80
2018-04-02T10:35:14.119Z,33.80
2018-04-02T10:37:40.109Z,33.80
2018-04-02T10:40:06.104Z,33.80
2018-04-02T10:42:32.104Z,33.80
2018-04-02T10:44:58.088Z,33.80
2018-04-02T10:47:24.852Z,33.90
2018-04-02T10:49:50.843Z,33.80
2018-04-02T10:52:17.572Z,34.40
2018-04-02T10:54:43.576Z,33.80
2018-04-02T10:57:09.566Z,33.80
2018-04-02T10:59:35.601Z,33.90
2018-04-02T11:02:01.569Z,33.80
2018-04-02T11:04:27.605Z,33.80
2018-04-02T11:06:53.569Z,33.80
2018-04-02T11:09:19.575Z,33.90
2018-04-02T11:11:45.592Z,33.80
2018-04-02T11:14:11.604Z,33.80
2018-04-02T11:16:38.344Z,33.90
2018-04-02T11:19:04.340Z,33.80
2018-04-02T11:21:30.324Z,33.80
2018-04-02T11:23:56.329Z,33.80
2018-04-02T11:26:22.328Z,33.90
2018-04-02T11:28:48.335Z,33.90
2018-04-02T11:31:14.348Z,33.80
2018-04-02T11:33:40.347Z,33.80
2018-04-02T11:36:06.337Z,33.90
2018-04-02T11:38:32.324Z,33.90
2018-04-02T11:40:58.337Z,33.80
2018-04-02T11:43:25.081Z,33.80
2018-04-02T11:45:51.095Z,33.80
2018-04-02T11:48:17.081Z,33.80
2018-04-02T11:50:43.880Z,33.80
2018-04-02T11:53:13.420Z,33.80
2018-04-02T11:55:39.424Z,33.80
2018-04-02T11:58:05.432Z,33.90
2018-04-02T12:00:31.415Z,33.80
2018-04-02T12:02:57.408Z,33.80
2018-04-02T12:05:23.408Z,33.80
2018-04-02T12:07:49.893Z,33.80
2018-04-02T12:10:15.898Z,33.90
2018-04-02T12:12:41.859Z,33.80
2018-04-02T12:15:08.661Z,33.90
2018-04-02T12:17:34.620Z,33.90
2018-04-02T12:20:01.560Z,33.90
2018-04-02T12:22:27.550Z,34.00
2018-04-02T12:24:53.569Z,33.90
2018-04-02T12:27:19.556Z,34.00
2018-04-02T12:29:45.552Z,34.00
2018-04-02T12:32:11.579Z,33.80
2018-04-02T12:34:37.568Z,34.00
2018-04-02T12:37:03.619Z,33.90
2018-04-02T12:39:29.621Z,33.80
2018-04-02T12:41:55.591Z,34.00
2018-04-02T12:44:21.602Z,33.90
2018-04-02T12:46:47.535Z,33.90
2018-04-02T12:49:13.503Z,33.90
2018-04-02T12:51:39.491Z,33.90
2018-04-02T12:54:06.228Z,34.00
2018-04-02T12:56:32.242Z,33.90
2018-04-02T12:58:59.013Z,34.00
2018-04-02T13:01:24.992Z,33.80
2018-04-02T13:03:50.971Z,34.00
2018-04-02T13:06:16.967Z,34.00
2018-04-02T13:08:42.959Z,34.00
2018-04-02T13:11:09.373Z,34.00
2018-04-02T13:13:35.369Z,33.90
2018-04-02T13:16:01.357Z,33.80
2018-04-02T13:18:27.376Z,33.90
2018-04-02T13:20:54.109Z,34.00
2018-04-02T13:23:20.104Z,33.90
2018-04-02T13:25:46.064Z,33.90
2018-04-02T13:28:12.812Z,33.80
2018-04-02T13:30:38.789Z,33.90
2018-04-02T13:33:04.804Z,33.90
2018-04-02T13:35:30.812Z,33.90
2018-04-02T13:37:56.886Z,33.90
2018-04-02T13:40:22.836Z,33.80
2018-04-02T13:42:48.811Z,33.90
2018-04-02T13:45:14.826Z,33.90
2018-04-02T13:47:40.803Z,33.90
2018-04-02T13:50:06.787Z,33.80
2018-04-02T13:52:32.771Z,33.80
2018-04-02T13:54:58.731Z,33.80
2018-04-02T13:57:24.729Z,33.80
2018-04-02T13:59:50.720Z,33.80
2018-04-02T14:02:16.727Z,33.80
2018-04-02T14:04:43.456Z,33.80
2018-04-02T14:07:09.434Z,33.80
2018-04-02T14:09:35.419Z,33.80
2018-04-02T14:12:01.403Z,33.80
2018-04-02T14:14:27.408Z,33.80
2018-04-02T14:16:53.387Z,33.80
2018-04-02T14:19:19.388Z,33.80
2018-04-02T14:21:46.083Z,33.80
2018-04-02T14:24:12.080Z,33.80
2018-04-02T14:26:38.071Z,33.80
2018-04-02T14:29:04.080Z,33.80
2018-04-02T14:31:30.088Z,33.80
2018-04-02T14:33:56.103Z,33.80
2018-04-02T14:36:22.116Z,33.80
2018-04-02T14:38:48.124Z,33.70
2018-04-02T14:41:14.112Z,33.70
2018-04-02T14:43:40.112Z,33.70
2018-04-02T14:46:06.114Z,33.70
2018-04-02T14:48:32.117Z,33.80
2018-04-02T14:50:58.087Z,33.80
2018-04-02T14:53:24.098Z,33.80
2018-04-02T14:55:50.088Z,33.80
2018-04-02T14:58:16.080Z,33.90
2018-04-02T15:00:42.100Z,33.80
2018-04-02T15:03:08.084Z,33.80
2018-04-02T15:05:34.081Z,33.80
2018-04-02T15:08:01.518Z,33.80
2018-04-02T15:10:27.506Z,33.80
2018-04-02T15:12:53.488Z,33.80
2018-04-02T15:15:19.467Z,33.80
2018-04-02T15:17:45.435Z,33.80
2018-04-02T15:20:11.449Z,33.80
2018-04-02T15:22:37.408Z,33.80
2018-04-02T15:25:03.412Z,33.90
2018-04-02T15:27:29.396Z,33.70
2018-04-02T15:29:55.396Z,33.80
2018-04-02T15:32:22.148Z,33.90
2018-04-02T15:34:48.127Z,33.90
2018-04-02T15:37:14.116Z,33.90
2018-04-02T15:39:40.120Z,34.00
2018-04-02T15:42:06.109Z,33.90
2018-04-02T15:44:32.075Z,33.90
2018-04-02T15:46:58.079Z,33.90
2018-04-02T15:49:24.780Z,33.90
2018-04-02T15:51:51.704Z,33.90
2018-04-02T15:54:17.688Z,33.90
2018-04-02T15:56:44.402Z,34.40
2018-04-02T15:59:10.373Z,33.90
2018-04-02T16:01:36.376Z,33.80
2018-04-02T16:04:02.368Z,34.00
2018-04-02T16:06:28.344Z,33.90
2018-04-02T16:08:54.328Z,33.90
2018-04-02T16:11:20.374Z,33.90
2018-04-02T16:13:46.333Z,33.80
2018-04-02T16:16:12.389Z,33.90
2018-04-02T16:18:38.318Z,33.90
2018-04-02T16:21:04.320Z,33.80
2018-04-02T16:23:30.322Z,33.90
2018-04-02T16:25:56.340Z,33.90
2018-04-02T16:28:22.311Z,33.90
2018-04-02T16:30:48.395Z,33.90
2018-04-02T16:33:14.348Z,33.90
2018-04-02T16:35:40.330Z,33.90
2018-04-02T16:38:06.303Z,34.30
2018-04-02T16:40:32.316Z,34.00
2018-04-02T16:42:58.341Z,34.00
2018-04-02T16:45:24.325Z,34.00
2018-04-02T16:47:50.355Z,34.00
2018-04-02T16:50:19.103Z,34.00
2018-04-02T16:52:45.121Z,34.00
2018-04-02T16:55:11.113Z,34.00
2018-04-02T16:57:37.091Z,34.00
2018-04-02T17:00:03.105Z,34.00
2018-04-02T17:02:29.112Z,34.00
2018-04-02T17:04:55.095Z,34.00
2018-04-02T17:07:21.078Z,34.00
2018-04-02T17:09:47.065Z,34.00
2018-04-02T17:12:14.339Z,34.00
2018-04-02T17:14:40.295Z,34.00
2018-04-02T17:17:06.296Z,34.00
2018-04-02T17:19:32.280Z,34.00
2018-04-02T17:21:59.023Z,34.00
2018-04-02T17:24:24.991Z,34.00
2018-04-02T17:26:50.989Z,34.00
2018-04-02T17:29:16.985Z,34.00
2018-04-02T17:31:43.008Z,34.00
2018-04-02T17:34:09.011Z,34.00
2018-04-02T17:36:34.995Z,34.00
2018-04-02T17:39:01.005Z,34.00
2018-04-02T17:41:27.004Z,34.00
2018-04-02T17:43:53.008Z,34.00
2018-04-02T17:46:19.003Z,34.00
2018-04-02T17:48:45.016Z,34.00
2018-04-02T17:51:11.013Z,34.10
2018-04-02T17:53:37.032Z,34.00
2018-04-02T17:56:03.102Z,34.00
2018-04-02T17:58:29.065Z,34.00
2018-04-02T18:00:55.061Z,34.00
2018-04-02T18:03:21.078Z,34.50
2018-04-02T18:05:47.074Z,34.00
2018-04-02T18:08:13.120Z,34.00
2018-04-02T18:10:39.124Z,34.00
2018-04-02T18:13:05.115Z,34.00
2018-04-02T18:15:31.119Z,34.00
2018-04-02T18:17:57.108Z,34.10
2018-04-02T18:20:23.116Z,34.10
2018-04-02T18:22:49.100Z,34.00
2018-04-02T18:25:20.193Z,34.00
2018-04-02T18:27:46.183Z,34.00
2018-04-02T18:30:12.192Z,34.00
2018-04-02T18:32:38.195Z,34.00
2018-04-02T18:35:04.940Z,34.10
2018-04-02T18:37:30.928Z,34.00
2018-04-02T18:39:56.936Z,34.10
2018-04-02T18:42:22.943Z,34.10
2018-04-02T18:44:48.948Z,34.10
2018-04-02T18:47:15.380Z,34.10
2018-04-02T18:49:41.389Z,34.10
2018-04-02T18:52:07.380Z,34.10
2018-04-02T18:54:33.381Z,34.10
2018-04-02T18:56:59.372Z,33.80
2018-04-02T18:59:25.388Z,34.10
2018-04-02T19:01:51.373Z,34.20
2018-04-02T19:04:17.364Z,34.20
2018-04-02T19:06:43.377Z,34.10
2018-04-02T19:09:09.387Z,34.10
2018-04-02T19:11:35.396Z,34.10
2018-04-02T19:14:01.408Z,34.10
2018-04-02T19:16:27.404Z,34.20
2018-04-02T19:18:53.388Z,34.20
2018-04-02T19:21:19.391Z,34.20
2018-04-02T19:23:45.375Z,34.20
2018-04-02T19:26:11.391Z,34.20
2018-04-02T19:28:37.396Z,34.20
2018-04-02T19:31:03.418Z,34.10
2018-04-02T19:33:30.363Z,34.20
2018-04-02T19:35:56.429Z,34.10
2018-04-02T19:38:22.428Z,34.20
2018-04-02T19:40:48.432Z,34.80
2018-04-02T19:43:14.421Z,34.20
2018-04-02T19:45:40.432Z,34.10
2018-04-02T19:48:07.164Z,34.20
2018-04-02T19:50:33.159Z,34.20
2018-04-02T19:52:59.156Z,34.20
2018-04-02T19:55:25.140Z,34.20
2018-04-02T19:57:51.140Z,34.20
2018-04-02T20:00:17.136Z,34.10
2018-04-02T20:02:43.149Z,34.20
2018-04-02T20:05:09.128Z,34.30
2018-04-02T20:07:35.880Z,34.30
2018-04-02T20:10:02.623Z,34.30
2018-04-02T20:12:28.625Z,34.20
2018-04-02T20:14:55.344Z,34.50
2018-04-02T20:17:21.344Z,34.30
2018-04-02T20:19:47.328Z,34.20
2018-04-02T20:22:13.344Z,34.30
2018-04-02T20:24:39.327Z,34.30
2018-04-02T20:27:05.336Z,34.40
2018-04-02T20:29:31.476Z,34.30
2018-04-02T20:31:57.496Z,34.30
2018-04-02T20:34:23.498Z,34.30
2018-04-02T20:36:49.496Z,34.30
2018-04-02T20:39:15.485Z,34.30
2018-04-02T20:41:41.484Z,34.20
2018-04-02T20:44:07.492Z,34.30
2018-04-02T20:46:33.482Z,34.30
2018-04-02T20:48:59.492Z,34.20
2018-04-02T20:51:25.475Z,34.30
2018-04-02T20:53:51.477Z,34.20
2018-04-02T20:56:17.464Z,34.20
2018-04-02T20:58:43.468Z,34.30
2018-04-02T21:01:09.457Z,34.30
2018-04-02T21:03:35.467Z,34.30
2018-04-02T21:06:01.460Z,34.30
2018-04-02T21:08:27.464Z,34.30
2018-04-02T21:10:53.448Z,34.30
2018-04-02T21:13:19.465Z,34.30
2018-04-02T21:15:45.452Z,34.30
2018-04-02T21:18:11.457Z,34.30
2018-04-02T21:20:38.212Z,34.40
2018-04-02T21:23:04.224Z,34.40
2018-04-02T21:25:30.963Z,34.30
2018-04-02T21:27:56.980Z,34.30
2018-04-02T21:30:23.708Z,34.70
2018-04-02T21:32:49.708Z,34.30
2018-04-02T21:35:15.708Z,34.40
2018-04-02T21:37:41.692Z,34.40
2018-04-02T21:40:07.692Z,34.30
2018-04-02T21:42:33.680Z,34.30
2018-04-02T21:44:59.685Z,34.50
2018-04-02T21:47:25.672Z,34.40
2018-04-02T21:49:51.740Z,34.50
2018-04-02T21:52:18.419Z,34.40
2018-04-02T21:54:45.164Z,34.40
2018-04-02T21:57:11.148Z,34.40
2018-04-02T21:59:37.151Z,34.50
2018-04-02T22:02:03.148Z,34.40
2018-04-02T22:04:29.152Z,34.40
2018-04-02T22:06:56.116Z,34.40
2018-04-02T22:09:22.116Z,34.40
2018-04-02T22:11:48.099Z,34.50
2018-04-02T22:14:14.108Z,34.40
2018-04-02T22:16:40.088Z,34.40
2018-04-02T22:19:06.821Z,34.50
2018-04-02T22:21:32.841Z,34.40
2018-04-02T22:23:58.839Z,35.00
2018-04-02T22:26:24.856Z,34.40
2018-04-02T22:28:50.844Z,34.40
2018-04-02T22:31:17.628Z,35.10
2018-04-02T22:33:43.613Z,34.50
2018-04-02T22:36:10.369Z,34.60
2018-04-02T22:38:36.368Z,34.50
2018-04-02T22:41:03.124Z,34.60
2018-04-02T22:43:29.108Z,34.50
2018-04-02T22:45:55.112Z,34.50
2018-04-02T22:48:21.109Z,34.50
2018-04-02T22:50:47.120Z,34.50
2018-04-02T22:53:13.112Z,34.50
2018-04-02T22:55:39.120Z,34.50
2018-04-02T22:58:05.107Z,34.60
2018-04-02T23:00:31.123Z,34.60
2018-04-02T23:02:57.124Z,34.60
2018-04-02T23:05:23.132Z,34.50
2018-04-02T23:07:49.124Z,34.50
2018-04-02T23:10:15.113Z,34.60
2018-04-02T23:12:41.116Z,34.60
2018-04-02T23:15:07.856Z,34.50
2018-04-02T23:17:33.880Z,34.50
2018-04-02T23:19:59.864Z,34.60
2018-04-02T23:25:29.624Z,34.60
2018-04-02T23:27:55.639Z,34.60
2018-04-02T23:30:22.368Z,35.10
2018-04-02T23:32:48.388Z,34.60
2018-04-02T23:35:14.380Z,34.70
2018-04-02T23:37:40.388Z,34.50
2018-04-02T23:40:06.380Z,34.60
2018-04-02T23:42:32.393Z,34.50
2018-04-02T23:44:59.115Z,34.80
2018-04-02T23:47:25.111Z,34.60
2018-04-02T23:49:51.104Z,34.50
2018-04-02T23:52:17.100Z,34.50
2018-04-02T23:54:43.084Z,34.60
2018-04-02T23:57:09.085Z,34.60
2018-04-02T23:59:35.076Z,34.60
